Flight Track Log - Related Links

Times and Time Zones

All times are in EDT time to prevent confusion due to time zone crossing. See the AWE1287 flight status page for this flight to view local times or setup timezone preferences in your user account.

Time Position Orientation Groundspeed Altitude Reporting Facility
EDT Latitude Longitude Course Direction KTS MPH feet Rate Location/Type
Fri 06:53:22 PM 42.9167 -71.4167 275° West 147 169 1,200  Level KA90
Fri 06:54:32 PM 42.8653 -71.4714 218° Southwest 184 212 2,800 1,892 Climbing Boston Center
Fri 06:55:00 PM 42.9501 -72.1315 270° West  Level FlightAware Approximate
Fri 06:55:32 PM 42.9036 -71.5642 299° West 208 239 5,300  Level Boston Center
Fri 06:56:00 PM 42.9564 -72.3655 273° West  Level FlightAware Approximate
Fri 06:56:44 PM 42.9481 -71.6628 302° West 267 307 8,400  Level Boston Center
Fri 06:57:00 PM 42.9660 -72.5994 273° West  Level FlightAware Approximate
Fri 06:57:44 PM 42.9550 -71.7878 274° West 291 335 10,800  Level Boston Center
Fri 06:58:00 PM 42.9723 -72.8333 275° West  Level FlightAware Approximate
Fri 06:58:44 PM 42.9578 -71.9067 272° West 336 387 12,500  Level Boston Center
Fri 06:59:44 PM 42.9644 -72.0514 274° West 348 400 14,700 2,000 Climbing Boston Center
Fri 07:00:44 PM 42.9669 -72.1792 272° West 369 425 16,500 1,650 Climbing Boston Center
Fri 07:01:44 PM 42.9714 -72.3236 272° West 377 434 18,000 1,550 Climbing Boston Center
Fri 07:02:44 PM 42.9861 -72.4656 278° West 382 440 19,600 1,000 Climbing Boston Center
Fri 07:03:44 PM 42.9839 -72.6189 269° West 394 453 20,000 200 Climbing Boston Center
Fri 07:04:44 PM 42.9814 -72.7806 269° West 394 453 20,000  Level Boston Center
Fri 07:05:44 PM 42.9850 -72.9339 272° West 399 459 20,000  Level Boston Center
Fri 07:06:44 PM 42.9906 -73.0703 273° West 409 471 20,000  Level Boston Center
Fri 07:07:44 PM 42.9939 -73.2236 272° West 409 471 20,000  Level Boston Center
Fri 07:08:44 PM 42.9739 -73.3822 260° West 398 458 20,000  Level Boston Center
Fri 07:09:44 PM 42.9061 -73.5086 234° Southwest 398 458 20,000  Level Boston Center
Fri 07:10:44 PM 42.8381 -73.6378 234° Southwest 414 476 20,000  Level Boston Center
Fri 07:11:44 PM 42.7678 -73.7636 233° Southwest 425 489 20,000  Level Boston Center
Fri 07:12:44 PM 42.7036 -73.8950 236° Southwest 425 489 20,000  Level Boston Center
Fri 07:13:44 PM 42.6394 -74.0261 236° Southwest 430 495 20,000  Level Boston Center
Fri 07:14:44 PM 42.5772 -74.1572 237° Southwest 425 489 20,000  Level Boston Center
Fri 07:15:44 PM 42.5125 -74.2878 236° Southwest 420 483 20,000  Level Boston Center
Fri 07:16:44 PM 42.4497 -74.4181 237° Southwest 420 483 20,000  Level Boston Center
Fri 07:17:44 PM 42.3828 -74.5481 235° Southwest 420 483 20,000  Level Boston Center
Fri 07:18:44 PM 42.3200 -74.6753 236° Southwest 420 483 20,000 -291 Level Boston Center
Fri 07:21:10 PM 42.1767 -74.9489 235° Southwest 410 472 19,000 -294 Descending New York Center
Fri 07:22:08 PM 42.0647 -75.0561 215° Southwest 410 472 19,000  Level New York Center
Fri 07:23:10 PM 41.9725 -75.1283 210° Southwest 420 483 19,000 -98 Level New York Center
Fri 07:24:11 PM 41.8672 -75.2133 211° Southwest 420 483 18,800 -756 Descending New York Center
Fri 07:25:09 PM 41.7686 -75.2928 211° Southwest 420 483 17,500 -1,513 Descending New York Center
Fri 07:26:10 PM 41.6761 -75.3700 212° Southwest 420 483 15,800 -1,650 Descending New York Center
Fri 07:27:09 PM 41.5944 -75.4336 210° Southwest 400 460 14,200 -1,563 Descending New York Center
Fri 07:28:09 PM 41.5083 -75.5025 211° Southwest 377 434 12,700 -1,140 Descending New York Center
Fri 07:29:10 PM 41.4136 -75.5789 211° Southwest 371 427 11,900 -397 Descending New York Center
Fri 07:30:10 PM 41.3361 -75.6394 210° Southwest 365 420 11,900 -393 Level New York Center
Fri 07:31:12 PM 41.2403 -75.6906 202° Southwest 356 410 11,100 -1,008 Descending New York Center
Fri 07:32:09 PM 41.1489 -75.6894 179° South 341 392 9,900 -610 Descending New York Center
Fri 07:33:10 PM 41.0719 -75.6867 178° South 318 366 9,900 49 Level New York Center
Fri 07:34:11 PM 40.9781 -75.6881 181° South 325 374 10,000 50 Climbing New York Center
Fri 07:35:09 PM 40.8739 -75.6861 179° South 338 389 10,000  Level New York Center
Fri 07:36:09 PM 40.7844 -75.6822 178° South 338 389 10,000  Level New York Center
Fri 07:37:10 PM 40.7014 -75.6244 152° Southeast 331 381 10,000  Level New York Center
Fri 07:38:11 PM 40.6308 -75.5672 148° Southeast 331 381 10,000  Level New York Center
Fri 07:39:09 PM 40.5519 -75.5072 150° Southeast 338 389 10,000  Level New York Center
Fri 07:40:09 PM 40.4711 -75.4472 151° Southeast 314 361 10,000 -689 Level New York Center
Fri 07:41:11 PM 40.4019 -75.4042 155° Southeast 294 338 8,600 -1,400 Descending New York Center
Fri 07:42:09 PM 40.3386 -75.3672 156° South 282 325 7,200 -1,300 Descending New York Center
Fri 07:43:11 PM 40.2556 -75.3617 177° South 271 312 6,000 -590 Descending New York Center
Fri 07:44:11 PM 40.1844 -75.3653 182° South 287 330 6,000  Level New York Center
Fri 07:45:11 PM 40.1031 -75.3681 181° South 287 330 6,000  Level New York Center
Fri 07:45:55 PM 40.0500 -75.3667 179° South 270 311 6,000  Level Philadelphia TRACON
Fri 07:47:01 PM 39.9667 -75.3667 180° South 212 244 6,000  Level Philadelphia TRACON
Fri 07:48:01 PM 39.9333 -75.4167 229° Southwest 225 259 6,000  Level Philadelphia TRACON
Fri 07:49:01 PM 39.9167 -75.5000 255° West 202 232 6,000 -331 Level Philadelphia TRACON
Fri 07:50:08 PM 39.9117 -75.5719 265° West 207 238 5,300 -462 Descending New York Center
Fri 07:51:11 PM 39.9003 -75.6442 258° West 207 238 5,000 -149 Descending New York Center
Fri 07:52:09 PM 39.8728 -75.7019 238° Southwest 196 226 5,000 -364 Level New York Center
Fri 07:53:56 PM 39.8167 -75.6500 145° Southeast 167 192 4,000 -361 Descending Philadelphia TRACON
Fri 07:54:55 PM 39.8000 -75.6000 113° Southeast 166 191 4,000  Level Philadelphia TRACON
Fri 07:56:07 PM 39.8167 -75.5333 72° East 156 180 4,000 -298 Level Philadelphia TRACON
Fri 07:56:56 PM 39.8167 -75.4833 90° East 155 178 3,400 -850 Descending Philadelphia TRACON
Fri 07:58:07 PM 39.8333 -75.4167 72° East 162 186 2,300 -900 Descending Philadelphia TRACON
Fri 07:58:56 PM 39.8333 -75.3833 90° East 159 183 1,600 -857 Descending Philadelphia TRACON

Login

Don't have an account? Register now (free) for customized features, flight alerts, and more!